Time;durP1;ratioP1;P1;durP2;ratioP2;P2;SDS_P1;SDS_P2;PMS_P1;PMS_P2;Temp;Humidity;BMP_temperature;BMP_pressure;BME280_temperature;BME280_humidity;BME280_pressure;Samples;Min_cycle;Max_cycle;Signal;HPM_P1;HPM_P2
2023/04/24 00:00:01;;;;;;;;;;;16.50;99.90;;;;;;5073212;28;19909;-71
2023/04/24 00:02:27;;;;;;;;;;;16.50;99.90;;;;;;5073584;28;19913;-71
2023/04/24 00:04:52;;;;;;;;;;;16.50;99.90;;;;;;5073986;28;19908;-75
2023/04/24 00:07:19;;;;;;;;;;;16.50;99.90;;;;;;5076112;28;19908;-71
2023/04/24 00:09:45;;;;;;;;;;;16.50;99.90;;;;;;5075717;28;20370;-71
2023/04/24 00:12:11;;;;;;;;;;;16.50;99.90;;;;;;5076459;28;19916;-72
2023/04/24 00:14:37;;;;;;;;;;;16.50;99.90;;;;;;5077632;28;20003;-71
2023/04/24 00:17:05;;;;;;;;;;;16.50;99.90;;;;;;5076183;28;19962;-72
2023/04/24 00:19:30;;;;;;;;;;;16.60;99.90;;;;;;5075733;28;19908;-74
2023/04/24 00:21:56;;;;;;;;;;;16.50;99.90;;;;;;5077055;28;19919;-71
2023/04/24 00:24:21;;;;;;;;;;;16.50;99.90;;;;;;5077490;28;20192;-71
2023/04/24 00:26:47;;;;;;;;;;;16.50;99.90;;;;;;5075932;28;19916;-71
2023/04/24 00:29:13;;;;;;;;;;;16.50;99.90;;;;;;5076550;28;19912;-71
2023/04/24 00:31:39;;;;;;;;;;;16.40;99.90;;;;;;5073428;28;19938;-71
2023/04/24 00:34:05;;;;;;;;;;;16.40;99.90;;;;;;5074941;28;19915;-71
2023/04/24 00:36:31;;;;;;;;;;;16.40;99.90;;;;;;5073629;28;19909;-71
2023/04/24 00:38:57;;;;;;;;;;;16.40;99.90;;;;;;5074521;28;19915;-71
2023/04/24 00:41:24;;;;;;;;;;;16.40;99.90;;;;;;5076928;28;19916;-72
2023/04/24 00:43:50;;;;;;;;;;;16.40;99.90;;;;;;5076070;28;19917;-71
2023/04/24 00:46:16;;;;;;;;;;;16.50;99.90;;;;;;5077017;28;19908;-71
2023/04/24 00:48:42;;;;;;;;;;;16.40;99.90;;;;;;5076428;28;19909;-71
2023/04/24 00:51:08;;;;;;;;;;;16.40;99.90;;;;;;5077062;28;19915;-71
2023/04/24 00:53:34;;;;;;;;;;;16.40;99.90;;;;;;5076252;28;19913;-71
2023/04/24 00:56:00;;;;;;;;;;;16.30;99.90;;;;;;5076399;28;19909;-72
2023/04/24 00:58:26;;;;;;;;;;;16.30;99.90;;;;;;5076045;28;20364;-71
2023/04/24 01:00:52;;;;;;;;;;;16.40;99.90;;;;;;5074729;28;19952;-71
2023/04/24 01:03:22;;;;;;;;;;;16.30;99.90;;;;;;5075526;28;19920;-71
2023/04/24 01:05:49;;;;;;;;;;;16.30;99.90;;;;;;5076449;28;19939;-71
2023/04/24 01:08:15;;;;;;;;;;;16.30;99.90;;;;;;5076036;28;19908;-71
2023/04/24 01:10:41;;;;;;;;;;;16.30;99.90;;;;;;5076411;28;19908;-71
2023/04/24 01:13:07;;;;;;;;;;;16.30;99.90;;;;;;5075674;28;20358;-71
2023/04/24 01:15:34;;;;;;;;;;;16.20;99.90;;;;;;5074563;28;19913;-72
2023/04/24 01:18:00;;;;;;;;;;;16.20;99.90;;;;;;5076697;28;19943;-74
2023/04/24 01:20:26;;;;;;;;;;;16.20;99.90;;;;;;5076892;28;19908;-72
2023/04/24 01:22:52;;;;;;;;;;;16.20;99.90;;;;;;5077317;28;19908;-72
2023/04/24 01:25:18;;;;;;;;;;;16.20;99.90;;;;;;5076702;28;19973;-71
2023/04/24 01:27:43;;;;;;;;;;;16.20;99.90;;;;;;5076456;28;20003;-72
2023/04/24 01:30:09;;;;;;;;;;;16.20;99.90;;;;;;5075908;28;20005;-71
2023/04/24 01:32:36;;;;;;;;;;;16.20;99.90;;;;;;5075355;28;19908;-71
2023/04/24 01:35:01;;;;;;;;;;;16.20;99.90;;;;;;5076082;28;19951;-71
2023/04/24 01:37:27;;;;;;;;;;;16.30;99.90;;;;;;5075295;28;19958;-71
2023/04/24 01:39:53;;;;;;;;;;;16.30;99.90;;;;;;5076875;28;19912;-72
2023/04/24 01:42:18;;;;;;;;;;;16.30;99.90;;;;;;5077549;28;19942;-71
2023/04/24 01:44:44;;;;;;;;;;;16.30;99.90;;;;;;5075757;28;19908;-72
2023/04/24 01:47:10;;;;;;;;;;;16.30;99.90;;;;;;5076523;28;19908;-71
2023/04/24 01:49:37;;;;;;;;;;;16.30;99.90;;;;;;5074994;28;19908;-71
2023/04/24 01:52:03;;;;;;;;;;;16.30;99.90;;;;;;5075365;28;19982;-72
2023/04/24 01:54:29;;;;;;;;;;;16.30;99.90;;;;;;5076377;28;19909;-71
2023/04/24 01:56:54;;;;;;;;;;;16.30;99.90;;;;;;5076330;28;19924;-71
2023/04/24 01:59:20;;;;;;;;;;;16.40;99.90;;;;;;5076252;28;20378;-74
2023/04/24 02:01:46;;;;;;;;;;;16.30;99.90;;;;;;5076056;28;19913;-72
2023/04/24 02:04:11;;;;;;;;;;;16.30;99.90;;;;;;5079151;28;19916;-71
2023/04/24 02:06:37;;;;;;;;;;;16.40;99.90;;;;;;5081326;28;20348;-72
2023/04/24 02:09:03;;;;;;;;;;;16.30;99.90;;;;;;5079545;28;19947;-71
2023/04/24 02:11:28;;;;;;;;;;;16.30;99.90;;;;;;5080638;28;19909;-70
2023/04/24 02:13:54;;;;;;;;;;;16.40;99.90;;;;;;5080303;28;20050;-71
2023/04/24 02:16:20;;;;;;;;;;;16.40;99.90;;;;;;5075833;28;20053;-73
2023/04/24 02:18:46;;;;;;;;;;;16.40;99.90;;;;;;5074721;28;20365;-71
2023/04/24 02:21:12;;;;;;;;;;;16.40;99.90;;;;;;5075916;28;19912;-71
2023/04/24 02:23:37;;;;;;;;;;;16.40;99.90;;;;;;5074789;28;19908;-71
2023/04/24 02:26:03;;;;;;;;;;;16.40;99.90;;;;;;5079503;28;19955;-70
2023/04/24 02:28:29;;;;;;;;;;;16.40;99.90;;;;;;5079315;28;20310;-71
2023/04/24 02:30:55;;;;;;;;;;;16.30;99.90;;;;;;5079520;28;19976;-71
2023/04/24 02:33:20;;;;;;;;;;;16.30;99.90;;;;;;5079319;28;19959;-71
2023/04/24 02:35:46;;;;;;;;;;;16.40;99.90;;;;;;5079343;28;19915;-72
2023/04/24 02:38:12;;;;;;;;;;;16.40;99.90;;;;;;5075981;28;20311;-71
2023/04/24 02:40:37;;;;;;;;;;;16.30;99.90;;;;;;5075954;28;20260;-71
2023/04/24 02:43:03;;;;;;;;;;;16.40;99.90;;;;;;5074224;28;19920;-72
2023/04/24 02:45:28;;;;;;;;;;;16.30;99.90;;;;;;5074040;28;19958;-71
2023/04/24 02:47:54;;;;;;;;;;;16.30;99.90;;;;;;5075371;28;19909;-71
2023/04/24 02:50:20;;;;;;;;;;;16.30;99.90;;;;;;5075360;28;19908;-71
2023/04/24 02:52:45;;;;;;;;;;;16.30;99.90;;;;;;5075494;28;19908;-74
2023/04/24 02:55:11;;;;;;;;;;;16.20;99.90;;;;;;5075058;28;20394;-71
2023/04/24 02:57:36;;;;;;;;;;;16.20;99.90;;;;;;5073818;28;19916;-71
2023/04/24 03:00:03;;;;;;;;;;;16.20;99.90;;;;;;5074760;28;20396;-69
2023/04/24 03:02:28;;;;;;;;;;;16.20;99.90;;;;;;5075019;28;20282;-70
2023/04/24 03:04:54;;;;;;;;;;;16.10;99.90;;;;;;5075304;28;20039;-71
2023/04/24 03:07:20;;;;;;;;;;;16.10;99.90;;;;;;5073929;28;19908;-71
2023/04/24 03:09:47;;;;;;;;;;;16.20;99.90;;;;;;5074408;28;20317;-71
2023/04/24 03:12:12;;;;;;;;;;;16.20;99.90;;;;;;5075034;28;19987;-71
2023/04/24 03:14:38;;;;;;;;;;;16.10;99.90;;;;;;5074916;28;19908;-71
2023/04/24 03:17:04;;;;;;;;;;;16.20;99.90;;;;;;5074911;28;20545;-71
2023/04/24 03:19:29;;;;;;;;;;;16.10;99.90;;;;;;5074131;28;19908;-72
2023/04/24 03:21:55;;;;;;;;;;;16.10;99.90;;;;;;5073320;28;19912;-70
2023/04/24 03:24:22;;;;;;;;;;;16.10;99.90;;;;;;5075163;28;19908;-71
2023/04/24 03:26:47;;;;;;;;;;;16.10;99.90;;;;;;5074349;28;20036;-71
2023/04/24 03:29:13;;;;;;;;;;;16.10;99.90;;;;;;5074203;28;19956;-70
2023/04/24 03:31:39;;;;;;;;;;;16.00;99.90;;;;;;5074511;28;19952;-75
2023/04/24 03:34:04;;;;;;;;;;;16.10;99.90;;;;;;5074846;28;19914;-72
2023/04/24 03:36:30;;;;;;;;;;;16.00;99.90;;;;;;5074372;28;19995;-71
2023/04/24 03:38:56;;;;;;;;;;;16.00;99.90;;;;;;5072129;28;20285;-71
2023/04/24 03:41:22;;;;;;;;;;;16.00;99.90;;;;;;5074884;28;19912;-70
2023/04/24 03:43:48;;;;;;;;;;;15.90;99.90;;;;;;5072254;28;19909;-70
2023/04/24 03:46:13;;;;;;;;;;;15.90;99.90;;;;;;5073764;28;19919;-71
2023/04/24 03:48:39;;;;;;;;;;;15.90;99.90;;;;;;5074542;28;19908;-71
2023/04/24 03:51:05;;;;;;;;;;;15.80;99.90;;;;;;5073014;28;19931;-71
2023/04/24 03:53:30;;;;;;;;;;;15.90;99.90;;;;;;5075292;28;19908;-71
2023/04/24 03:55:56;;;;;;;;;;;15.90;99.90;;;;;;5074506;28;19909;-71
2023/04/24 03:58:22;;;;;;;;;;;15.90;99.90;;;;;;5073996;28;19938;-71
2023/04/24 04:00:47;;;;;;;;;;;15.80;99.90;;;;;;5076657;28;19912;-71
2023/04/24 04:03:14;;;;;;;;;;;15.80;99.90;;;;;;5075412;28;19908;-71
2023/04/24 04:05:40;;;;;;;;;;;15.90;99.90;;;;;;5078465;28;20560;-70
2023/04/24 04:08:05;;;;;;;;;;;15.90;99.90;;;;;;5078508;28;19940;-72
2023/04/24 04:10:31;;;;;;;;;;;15.90;99.90;;;;;;5079697;28;20287;-70
2023/04/24 04:12:57;;;;;;;;;;;15.90;99.90;;;;;;5076610;28;19999;-71
2023/04/24 04:15:22;;;;;;;;;;;15.90;99.90;;;;;;5078623;28;19991;-71
2023/04/24 04:17:48;;;;;;;;;;;15.90;99.90;;;;;;5078543;28;19916;-72
2023/04/24 04:20:14;;;;;;;;;;;15.90;99.90;;;;;;5078701;28;19916;-71
2023/04/24 04:22:40;;;;;;;;;;;16.00;99.90;;;;;;5078703;28;19912;-71
2023/04/24 04:25:06;;;;;;;;;;;15.90;99.90;;;;;;5077347;28;19913;-71
2023/04/24 04:27:32;;;;;;;;;;;15.90;99.90;;;;;;5076521;28;20031;-71
2023/04/24 04:29:59;;;;;;;;;;;15.90;99.90;;;;;;5077463;28;20006;-72
2023/04/24 04:32:24;;;;;;;;;;;15.90;99.90;;;;;;5074899;28;19912;-72
2023/04/24 04:34:53;;;;;;;;;;;15.90;99.90;;;;;;5073405;28;20301;-72
2023/04/24 04:37:18;;;;;;;;;;;15.90;99.90;;;;;;5072334;28;19915;-72
2023/04/24 04:39:44;;;;;;;;;;;15.90;99.90;;;;;;5074227;28;19983;-70
2023/04/24 04:42:10;;;;;;;;;;;15.90;99.90;;;;;;5074027;28;20007;-72
2023/04/24 04:44:36;;;;;;;;;;;15.90;99.90;;;;;;5074593;28;19913;-72
2023/04/24 04:47:05;;;;;;;;;;;15.90;99.90;;;;;;5072583;28;19962;-72
2023/04/24 04:49:31;;;;;;;;;;;15.90;99.90;;;;;;5074263;28;19908;-71
2023/04/24 04:51:57;;;;;;;;;;;15.80;99.90;;;;;;5078029;28;19909;-71
2023/04/24 04:54:23;;;;;;;;;;;15.90;99.90;;;;;;5077214;28;19916;-72
2023/04/24 04:56:52;;;;;;;;;;;15.90;99.90;;;;;;5076439;28;20009;-71
2023/04/24 04:59:17;;;;;;;;;;;15.80;99.90;;;;;;5077868;28;19917;-70
2023/04/24 05:01:43;;;;;;;;;;;15.80;99.90;;;;;;5077577;28;19939;-71
2023/04/24 05:04:09;;;;;;;;;;;15.90;99.90;;;;;;5077757;28;20004;-71
2023/04/24 05:06:34;;;;;;;;;;;15.80;99.90;;;;;;5077723;28;19956;-71
2023/04/24 05:09:00;;;;;;;;;;;15.80;99.90;;;;;;5076926;28;20007;-71
2023/04/24 05:11:26;;;;;;;;;;;15.70;99.90;;;;;;5076010;28;19909;-71
2023/04/24 05:13:51;;;;;;;;;;;15.80;99.90;;;;;;5075991;28;20255;-69
2023/04/24 05:16:17;;;;;;;;;;;15.70;99.90;;;;;;5076116;28;19952;-72
2023/04/24 05:18:43;;;;;;;;;;;15.80;99.90;;;;;;5075355;28;19916;-71
2023/04/24 05:21:08;;;;;;;;;;;15.80;99.90;;;;;;5076104;28;19919;-71
2023/04/24 05:23:34;;;;;;;;;;;15.80;99.90;;;;;;5077277;28;20318;-70
2023/04/24 05:26:00;;;;;;;;;;;15.80;99.90;;;;;;5077638;28;19916;-70
2023/04/24 05:28:28;;;;;;;;;;;15.80;99.90;;;;;;5076348;28;19927;-72
2023/04/24 05:30:55;;;;;;;;;;;15.90;99.90;;;;;;5075400;28;19912;-72
2023/04/24 05:33:22;;;;;;;;;;;15.80;99.90;;;;;;5076561;28;19916;-71
2023/04/24 05:35:48;;;;;;;;;;;15.80;99.90;;;;;;5076796;28;19933;-71
2023/04/24 05:38:13;;;;;;;;;;;15.80;99.90;;;;;;5076055;28;19991;-71
2023/04/24 05:40:39;;;;;;;;;;;15.80;99.90;;;;;;5075052;28;20058;-71
2023/04/24 05:43:05;;;;;;;;;;;15.80;99.90;;;;;;5075327;28;19909;-71
2023/04/24 05:45:31;;;;;;;;;;;15.80;99.90;;;;;;5076390;28;20333;-70
2023/04/24 05:47:57;;;;;;;;;;;15.80;99.90;;;;;;5074684;28;19948;-70
2023/04/24 05:50:22;;;;;;;;;;;15.80;99.90;;;;;;5075228;28;19909;-71
2023/04/24 05:52:48;;;;;;;;;;;15.80;99.90;;;;;;5076670;28;20347;-71
2023/04/24 05:55:14;;;;;;;;;;;15.80;99.90;;;;;;5075422;28;19909;-71
2023/04/24 05:57:39;;;;;;;;;;;15.90;99.90;;;;;;5074746;28;19939;-71
2023/04/24 06:00:05;;;;;;;;;;;15.90;99.90;;;;;;5076731;28;19919;-71
2023/04/24 06:02:32;;;;;;;;;;;15.90;99.90;;;;;;5074349;28;20244;-71
2023/04/24 06:05:01;;;;;;;;;;;15.90;99.90;;;;;;5075802;28;19991;-71
2023/04/24 06:07:27;;;;;;;;;;;15.90;99.90;;;;;;5076278;28;19909;-71
2023/04/24 06:09:52;;;;;;;;;;;15.90;99.90;;;;;;5074516;28;20397;-72
2023/04/24 06:12:18;;;;;;;;;;;15.90;99.90;;;;;;5074869;28;19912;-71
2023/04/24 06:14:43;;;;;;;;;;;15.80;99.90;;;;;;5076391;28;20401;-77
2023/04/24 06:17:09;;;;;;;;;;;15.80;99.90;;;;;;5075634;28;19919;-72
2023/04/24 06:19:35;;;;;;;;;;;15.90;99.90;;;;;;5074220;28;20477;-71
2023/04/24 06:22:00;;;;;;;;;;;15.80;99.90;;;;;;5076024;28;19913;-71
2023/04/24 06:24:29;;;;;;;;;;;15.80;99.90;;;;;;5075649;28;20306;-70
2023/04/24 06:26:56;;;;;;;;;;;15.90;99.90;;;;;;5075233;28;19939;-74
2023/04/24 06:29:22;;;;;;;;;;;15.90;99.90;;;;;;5074837;28;20447;-71
2023/04/24 06:31:47;;;;;;;;;;;15.90;99.90;;;;;;5075243;28;19914;-71
2023/04/24 06:34:13;;;;;;;;;;;15.70;99.90;;;;;;5073840;28;20337;-71
2023/04/24 06:36:39;;;;;;;;;;;15.60;99.90;;;;;;5074665;28;19912;-70
2023/04/24 06:39:04;;;;;;;;;;;15.50;99.90;;;;;;5074739;28;19908;-70
2023/04/24 06:41:30;;;;;;;;;;;15.40;99.90;;;;;;5074901;28;20408;-71
2023/04/24 06:43:56;;;;;;;;;;;15.40;99.90;;;;;;5075354;28;19969;-70
2023/04/24 06:46:25;;;;;;;;;;;15.40;99.90;;;;;;5075226;28;19991;-73
2023/04/24 06:48:57;;;;;;;;;;;15.30;99.90;;;;;;5075284;28;20328;-69
2023/04/24 06:51:23;;;;;;;;;;;15.20;99.90;;;;;;5074066;28;19908;-70
2023/04/24 06:53:49;;;;;;;;;;;15.10;99.90;;;;;;5074959;28;20271;-70
2023/04/24 06:56:15;;;;;;;;;;;15.00;99.90;;;;;;5075395;28;20401;-70
2023/04/24 06:58:41;;;;;;;;;;;15.00;99.90;;;;;;5073589;28;19932;-70
2023/04/24 07:01:07;;;;;;;;;;;14.90;99.90;;;;;;5073734;28;19935;-70
2023/04/24 07:03:33;;;;;;;;;;;15.00;99.90;;;;;;5074986;28;20030;-70
2023/04/24 07:05:58;;;;;;;;;;;15.10;99.90;;;;;;5074715;28;19947;-71
2023/04/24 07:08:25;;;;;;;;;;;15.10;99.90;;;;;;5074240;28;20073;-70
2023/04/24 07:10:51;;;;;;;;;;;15.10;99.90;;;;;;5074629;28;19962;-70
2023/04/24 07:13:17;;;;;;;;;;;15.20;99.90;;;;;;5074884;28;19934;-70
2023/04/24 07:15:43;;;;;;;;;;;15.20;99.90;;;;;;5074127;28;20370;-71
2023/04/24 07:18:08;;;;;;;;;;;15.20;99.90;;;;;;5074448;28;19916;-72
2023/04/24 07:20:34;;;;;;;;;;;15.20;99.90;;;;;;5074423;28;19967;-69
2023/04/24 07:23:00;;;;;;;;;;;15.40;99.90;;;;;;5074595;28;20272;-71
2023/04/24 07:25:26;;;;;;;;;;;15.40;99.90;;;;;;5074176;28;20011;-75
2023/04/24 07:27:53;;;;;;;;;;;15.40;99.90;;;;;;5073954;28;19916;-71
2023/04/24 07:30:19;;;;;;;;;;;15.40;99.90;;;;;;5073197;28;19912;-70
2023/04/24 07:32:44;;;;;;;;;;;15.50;99.90;;;;;;5074049;28;20000;-71
2023/04/24 07:35:10;;;;;;;;;;;15.40;99.90;;;;;;5072221;28;19915;-70
2023/04/24 07:37:36;;;;;;;;;;;15.40;99.90;;;;;;5071129;28;19974;-70
2023/04/24 07:40:02;;;;;;;;;;;15.30;99.90;;;;;;5072592;28;19913;-71
2023/04/24 07:42:27;;;;;;;;;;;15.20;99.90;;;;;;5071974;28;19918;-70
2023/04/24 07:44:53;;;;;;;;;;;15.20;99.90;;;;;;5071860;28;19913;-69
2023/04/24 07:47:19;;;;;;;;;;;15.20;99.90;;;;;;5071684;28;19916;-70
2023/04/24 07:49:45;;;;;;;;;;;15.20;99.90;;;;;;5071597;28;20011;-75
2023/04/24 07:52:10;;;;;;;;;;;15.30;99.90;;;;;;5073260;28;19909;-72
2023/04/24 07:54:37;;;;;;;;;;;15.20;99.90;;;;;;5074191;28;19999;-70
2023/04/24 07:57:03;;;;;;;;;;;15.30;99.90;;;;;;5074515;28;19916;-70
2023/04/24 07:59:28;;;;;;;;;;;15.40;99.90;;;;;;5073812;28;20314;-72
2023/04/24 08:01:54;;;;;;;;;;;15.30;99.90;;;;;;5073681;28;19912;-71
2023/04/24 08:04:20;;;;;;;;;;;15.30;99.90;;;;;;5074300;28;19989;-70
2023/04/24 08:06:47;;;;;;;;;;;15.30;99.90;;;;;;5073997;28;20370;-71
2023/04/24 08:09:13;;;;;;;;;;;15.30;99.90;;;;;;5073815;28;19908;-70
2023/04/24 08:11:38;;;;;;;;;;;15.20;99.90;;;;;;5074164;28;19920;-70
2023/04/24 08:14:04;;;;;;;;;;;15.20;99.90;;;;;;5073280;28;19991;-70
2023/04/24 08:16:30;;;;;;;;;;;15.10;99.90;;;;;;5074032;28;19915;-70
2023/04/24 08:18:55;;;;;;;;;;;15.10;99.90;;;;;;5073953;28;20370;-70
2023/04/24 08:21:21;;;;;;;;;;;15.00;99.90;;;;;;5072638;28;19913;-70
2023/04/24 08:23:47;;;;;;;;;;;15.00;99.90;;;;;;5074728;28;20015;-69
2023/04/24 08:26:13;;;;;;;;;;;14.90;99.90;;;;;;5077382;28;19909;-70
2023/04/24 08:28:38;;;;;;;;;;;14.90;99.90;;;;;;5076865;28;20254;-70
2023/04/24 08:31:04;;;;;;;;;;;14.90;99.90;;;;;;5077818;28;19915;-70
2023/04/24 08:33:34;;;;;;;;;;;14.90;99.90;;;;;;5077673;28;19908;-70
2023/04/24 08:36:01;;;;;;;;;;;14.90;99.90;;;;;;5077983;28;19947;-70
2023/04/24 08:38:27;;;;;;;;;;;14.90;99.90;;;;;;5077781;28;19908;-71
2023/04/24 08:40:53;;;;;;;;;;;14.90;99.90;;;;;;5076196;28;20002;-70
2023/04/24 08:43:21;;;;;;;;;;;14.90;99.90;;;;;;5077715;28;19961;-70
2023/04/24 08:45:46;;;;;;;;;;;14.90;99.90;;;;;;5076001;28;19912;-70
2023/04/24 08:48:12;;;;;;;;;;;14.90;99.90;;;;;;5077494;28;20016;-72
2023/04/24 08:50:38;;;;;;;;;;;14.80;99.90;;;;;;5076236;28;19970;-70
2023/04/24 08:53:04;;;;;;;;;;;14.70;99.90;;;;;;5077671;28;20007;-71
2023/04/24 08:55:30;;;;;;;;;;;14.70;99.90;;;;;;5077326;28;20208;-71
2023/04/24 08:57:56;;;;;;;;;;;14.60;99.90;;;;;;5076018;28;19908;-70
2023/04/24 09:00:22;;;;;;;;;;;14.50;99.90;;;;;;5078438;28;20000;-71
2023/04/24 09:02:49;;;;;;;;;;;14.40;99.90;;;;;;5077239;28;19912;-70
2023/04/24 09:05:16;;;;;;;;;;;14.30;99.90;;;;;;5077163;28;20358;-70
2023/04/24 09:07:44;;;;;;;;;;;14.10;99.90;;;;;;5076987;28;19948;-71
2023/04/24 09:10:10;;;;;;;;;;;14.10;99.90;;;;;;5077022;28;19915;-73
2023/04/24 09:12:36;;;;;;;;;;;14.10;99.90;;;;;;5076562;28;20381;-73
2023/04/24 09:15:03;;;;;;;;;;;14.00;99.90;;;;;;5076896;28;19920;-71
2023/04/24 09:17:30;;;;;;;;;;;14.00;99.90;;;;;;5075628;28;19909;-69
2023/04/24 09:19:55;;;;;;;;;;;14.00;99.90;;;;;;5076946;28;19908;-70
2023/04/24 09:22:21;;;;;;;;;;;14.00;99.90;;;;;;5075649;28;19919;-70
2023/04/24 09:24:47;;;;;;;;;;;13.90;99.90;;;;;;5076050;28;19920;-70
2023/04/24 09:27:14;;;;;;;;;;;13.90;99.90;;;;;;5075591;28;20098;-71
2023/04/24 09:29:53;;;;;;;;;;;13.90;99.90;;;;;;5076454;28;20393;-73
2023/04/24 09:32:21;;;;;;;;;;;13.90;99.90;;;;;;5076822;28;19909;-70
2023/04/24 09:34:47;;;;;;;;;;;13.90;99.90;;;;;;5075667;28;19912;-71
2023/04/24 09:37:26;;;;;;;;;;;13.90;99.90;;;;;;5073869;28;19999;-70
2023/04/24 09:40:07;;;;;;;;;;;13.90;99.90;;;;;;5075624;28;20336;-70
2023/04/24 09:42:32;;;;;;;;;;;14.00;99.90;;;;;;5076329;28;19965;-71
2023/04/24 09:44:58;;;;;;;;;;;14.10;99.90;;;;;;5076211;28;19908;-70
2023/04/24 09:47:24;;;;;;;;;;;14.10;99.90;;;;;;5074095;28;20424;-70
2023/04/24 09:49:49;;;;;;;;;;;14.20;99.90;;;;;;5073928;28;19908;-72
2023/04/24 09:52:15;;;;;;;;;;;14.20;99.90;;;;;;5075380;28;20392;-71
2023/04/24 09:54:40;;;;;;;;;;;14.30;99.90;;;;;;5074401;28;20290;-71
2023/04/24 09:57:09;;;;;;;;;;;14.30;99.90;;;;;;5075100;28;19916;-69
2023/04/24 09:59:41;;;;;;;;;;;14.30;99.90;;;;;;5075150;28;19909;-74
2023/04/24 10:02:16;;;;;;;;;;;14.20;99.90;;;;;;5076906;28;20104;-71
2023/04/24 10:04:53;;;;;;;;;;;14.30;99.90;;;;;;5076454;28;20017;-71
2023/04/24 10:07:19;;;;;;;;;;;14.30;99.90;;;;;;5074552;28;19916;-71
2023/04/24 10:09:45;;;;;;;;;;;14.30;99.90;;;;;;5075366;28;20298;-71
2023/04/24 10:12:11;;;;;;;;;;;14.40;99.90;;;;;;5076118;28;20345;-70
2023/04/24 10:14:37;;;;;;;;;;;14.40;99.90;;;;;;5075628;28;20004;-71
2023/04/24 10:17:02;;;;;;;;;;;14.50;99.90;;;;;;5076032;28;19915;-72
2023/04/24 10:19:29;;;;;;;;;;;14.50;99.90;;;;;;5075258;28;20391;-72
2023/04/24 10:21:56;;;;;;;;;;;14.50;99.90;;;;;;5074593;28;19912;-71
2023/04/24 10:24:21;;;;;;;;;;;14.60;99.90;;;;;;5075710;28;20006;-71
2023/04/24 10:26:48;;;;;;;;;;;14.60;99.90;;;;;;5076724;28;19951;-71
2023/04/24 10:29:15;;;;;;;;;;;14.70;99.90;;;;;;5074690;28;19909;-69
2023/04/24 10:31:41;;;;;;;;;;;14.70;99.90;;;;;;5074940;28;19995;-71
2023/04/24 10:34:08;;;;;;;;;;;14.80;99.90;;;;;;5075231;28;19915;-71
2023/04/24 10:36:34;;;;;;;;;;;14.80;99.90;;;;;;5074097;28;20405;-71
2023/04/24 10:39:01;;;;;;;;;;;14.90;99.90;;;;;;5074794;28;20378;-71
2023/04/24 10:41:27;;;;;;;;;;;15.00;99.90;;;;;;5073456;28;20002;-71
2023/04/24 10:44:04;;;;;;;;;;;15.00;99.90;;;;;;5074884;28;19936;-71
2023/04/24 10:46:30;;;;;;;;;;;15.00;99.90;;;;;;5074605;28;19948;-71
2023/04/24 10:48:56;;;;;;;;;;;15.00;99.90;;;;;;5072996;28;19908;-71
2023/04/24 10:51:22;;;;;;;;;;;15.00;99.90;;;;;;5073706;28;20363;-71
2023/04/24 10:53:50;;;;;;;;;;;14.90;99.90;;;;;;5075418;28;19912;-71
2023/04/24 10:56:15;;;;;;;;;;;14.90;99.90;;;;;;5078529;28;19909;-71
2023/04/24 10:58:49;;;;;;;;;;;14.80;99.90;;;;;;5076966;28;20332;-71
2023/04/24 11:01:28;;;;;;;;;;;14.70;99.90;;;;;;5077818;28;20014;-71
2023/04/24 11:03:55;;;;;;;;;;;14.70;99.90;;;;;;5076476;28;19919;-71
2023/04/24 11:06:28;;;;;;;;;;;14.70;99.90;;;;;;5075948;28;19909;-70
2023/04/24 11:09:01;;;;;;;;;;;14.80;99.90;;;;;;5074539;28;19919;-72
2023/04/24 11:11:28;;;;;;;;;;;14.70;99.90;;;;;;5074493;28;20263;-72
2023/04/24 11:13:57;;;;;;;;;;;14.70;99.90;;;;;;5072903;28;20354;-72
2023/04/24 11:16:25;;;;;;;;;;;14.60;99.90;;;;;;5074708;28;20263;-72
2023/04/24 11:19:00;;;;;;;;;;;14.60;99.90;;;;;;5079777;28;20226;-72
2023/04/24 11:21:31;;;;;;;;;;;14.60;99.90;;;;;;5079019;28;19913;-71
2023/04/24 11:23:56;;;;;;;;;;;14.60;99.90;;;;;;5079268;28;19908;-71
2023/04/24 11:26:30;;;;;;;;;;;14.50;99.90;;;;;;5076987;28;19961;-71
2023/04/24 11:29:06;;;;;;;;;;;14.50;99.90;;;;;;5073740;28;19912;-72
2023/04/24 11:31:36;;;;;;;;;;;14.50;99.90;;;;;;5073697;28;19955;-73
2023/04/24 11:34:13;;;;;;;;;;;14.50;99.90;;;;;;5073099;28;19909;-71
2023/04/24 11:36:40;;;;;;;;;;;14.60;99.90;;;;;;5073954;28;19945;-71
2023/04/24 11:39:06;;;;;;;;;;;14.50;99.90;;;;;;5073747;28;19959;-72
2023/04/24 11:41:33;;;;;;;;;;;14.40;99.90;;;;;;5073056;28;19959;-72
2023/04/24 11:43:59;;;;;;;;;;;14.50;99.90;;;;;;5073858;28;20005;-72
2023/04/24 11:46:27;;;;;;;;;;;14.40;99.90;;;;;;5073951;28;20374;-74
2023/04/24 11:48:53;;;;;;;;;;;14.40;99.90;;;;;;5074103;28;19908;-73
2023/04/24 11:51:18;;;;;;;;;;;14.40;99.90;;;;;;5074087;28;19909;-71
2023/04/24 11:53:44;;;;;;;;;;;14.40;99.90;;;;;;5074331;28;19939;-71
2023/04/24 11:56:09;;;;;;;;;;;14.50;99.90;;;;;;5073977;28;19963;-71
2023/04/24 11:58:36;;;;;;;;;;;14.50;99.90;;;;;;5073552;28;20099;-71
2023/04/24 12:01:02;;;;;;;;;;;14.40;99.90;;;;;;5071617;28;20007;-71
2023/04/24 12:03:27;;;;;;;;;;;14.40;99.90;;;;;;5073948;28;19952;-76
2023/04/24 12:06:04;;;;;;;;;;;14.40;99.90;;;;;;5074473;28;19912;-71
2023/04/24 12:08:29;;;;;;;;;;;14.40;99.90;;;;;;5073562;28;19908;-72
2023/04/24 12:10:55;;;;;;;;;;;14.40;99.90;;;;;;5073657;28;19916;-72
2023/04/24 12:13:21;;;;;;;;;;;14.40;99.90;;;;;;5074386;28;20181;-71
2023/04/24 12:15:46;;;;;;;;;;;14.30;99.90;;;;;;5074038;28;19912;-72
2023/04/24 12:18:13;;;;;;;;;;;14.30;99.90;;;;;;5072692;28;19915;-72
2023/04/24 12:20:40;;;;;;;;;;;14.20;99.90;;;;;;5073903;28;19919;-72
2023/04/24 12:23:06;;;;;;;;;;;14.20;99.90;;;;;;5072068;28;19912;-71
2023/04/24 12:25:32;;;;;;;;;;;14.20;99.90;;;;;;5073607;28;20549;-72
2023/04/24 12:28:04;;;;;;;;;;;14.10;99.90;;;;;;5071926;28;19920;-72
2023/04/24 12:30:31;;;;;;;;;;;14.10;99.90;;;;;;5073537;28;19915;-71
2023/04/24 12:33:00;;;;;;;;;;;14.10;99.90;;;;;;5072041;28;19908;-73
2023/04/24 12:35:27;;;;;;;;;;;14.10;99.90;;;;;;5073789;28;19961;-71
2023/04/24 12:37:53;;;;;;;;;;;14.10;99.90;;;;;;5073080;28;19909;-73
2023/04/24 12:40:19;;;;;;;;;;;14.00;99.90;;;;;;5073746;28;19908;-72
2023/04/24 12:42:46;;;;;;;;;;;14.00;99.90;;;;;;5073403;28;19920;-73
2023/04/24 12:45:12;;;;;;;;;;;14.00;99.90;;;;;;5073506;28;19912;-71
2023/04/24 12:47:39;;;;;;;;;;;13.90;99.90;;;;;;5073395;28;19919;-72
2023/04/24 12:50:05;;;;;;;;;;;13.90;99.90;;;;;;5071731;28;19973;-72
2023/04/24 12:52:31;;;;;;;;;;;14.00;99.90;;;;;;5072056;28;19962;-74
2023/04/24 12:54:58;;;;;;;;;;;14.00;99.90;;;;;;5072653;28;19913;-71
2023/04/24 12:57:25;;;;;;;;;;;13.90;99.90;;;;;;5071198;28;20293;-72
2023/04/24 12:59:52;;;;;;;;;;;13.90;99.90;;;;;;5071939;28;20405;-72
2023/04/24 13:02:18;;;;;;;;;;;13.80;99.90;;;;;;5072560;28;19913;-73
2023/04/24 13:04:44;;;;;;;;;;;13.80;99.90;;;;;;5070814;28;19913;-71
2023/04/24 13:07:10;;;;;;;;;;;13.80;99.90;;;;;;5072165;28;19908;-72
2023/04/24 13:09:35;;;;;;;;;;;13.90;99.90;;;;;;5072042;28;20285;-71
2023/04/24 13:12:01;;;;;;;;;;;14.00;99.90;;;;;;5074704;28;19919;-71
2023/04/24 13:14:27;;;;;;;;;;;14.10;99.90;;;;;;5074591;28;20390;-72
2023/04/24 13:16:52;;;;;;;;;;;14.10;99.90;;;;;;5075769;28;19909;-72
2023/04/24 13:19:18;;;;;;;;;;;14.10;99.90;;;;;;5075479;28;20003;-73
2023/04/24 13:21:44;;;;;;;;;;;14.00;99.90;;;;;;5075147;28;19932;-72
2023/04/24 13:24:09;;;;;;;;;;;13.90;99.90;;;;;;5074307;28;19908;-72
2023/04/24 13:26:35;;;;;;;;;;;13.80;99.90;;;;;;5074601;28;19927;-72
2023/04/24 13:29:01;;;;;;;;;;;13.80;99.90;;;;;;5075130;28;19908;-72
2023/04/24 13:31:26;;;;;;;;;;;13.70;99.90;;;;;;5075576;28;20354;-71
2023/04/24 13:33:52;;;;;;;;;;;13.70;99.90;;;;;;5074436;28;20155;-72
2023/04/24 13:36:17;;;;;;;;;;;13.70;99.90;;;;;;5074547;28;19909;-71
2023/04/24 13:38:46;;;;;;;;;;;13.70;99.90;;;;;;5074640;28;19963;-72
2023/04/24 13:41:12;;;;;;;;;;;13.80;99.90;;;;;;5073322;28;19919;-72
2023/04/24 13:43:37;;;;;;;;;;;13.80;99.90;;;;;;5074348;28;19908;-72
2023/04/24 13:46:03;;;;;;;;;;;13.80;99.90;;;;;;5072737;28;20301;-73
2023/04/24 13:48:29;;;;;;;;;;;13.70;99.90;;;;;;5072416;28;19915;-71
2023/04/24 13:50:55;;;;;;;;;;;13.80;99.90;;;;;;5072624;28;20445;-73
2023/04/24 13:53:21;;;;;;;;;;;13.90;99.90;;;;;;5074335;28;19974;-71
2023/04/24 13:55:47;;;;;;;;;;;13.90;99.90;;;;;;5072624;28;19936;-71
2023/04/24 13:58:13;;;;;;;;;;;14.00;99.90;;;;;;5072471;28;19909;-72
2023/04/24 14:00:39;;;;;;;;;;;14.10;99.90;;;;;;5072525;28;19908;-72
2023/04/24 14:03:04;;;;;;;;;;;14.20;99.90;;;;;;5072451;28;20432;-71
2023/04/24 14:05:30;;;;;;;;;;;14.30;99.90;;;;;;5072551;28;20389;-72
2023/04/24 14:07:56;;;;;;;;;;;14.40;99.90;;;;;;5073543;28;19948;-74
2023/04/24 14:10:21;;;;;;;;;;;14.50;99.90;;;;;;5074036;28;20379;-72